Time;durP1;ratioP1;P1;durP2;ratioP2;P2;SDS_P1;SDS_P2;PMS_P1;PMS_P2;Temp;Humidity;BMP_temperature;BMP_pressure;BME280_temperature;BME280_humidity;BME280_pressure;Samples;Min_cycle;Max_cycle;Signal;HPM_P1;HPM_P2
2022/06/16 00:01:09;;;;;;;6.25;2.45;;;;;;;20.18;59.47;99026.28;5136119;27;20060;-72
2022/06/16 00:03:56;;;;;;;4.63;2.00;;;;;;;20.20;60.20;99020.78;5135389;27;20070;-72
2022/06/16 00:06:41;;;;;;;4.72;2.40;;;;;;;20.24;60.08;99023.97;5135592;27;20057;-72
2022/06/16 00:09:26;;;;;;;4.85;2.30;;;;;;;20.34;59.66;99016.66;5133870;27;20039;-72
2022/06/16 00:12:11;;;;;;;4.63;2.47;;;;;;;20.20;60.12;99018.13;5135306;27;20806;-74
2022/06/16 00:14:56;;;;;;;4.95;1.98;;;;;;;20.12;60.82;99018.94;5104718;27;20385;-74
2022/06/16 00:17:41;;;;;;;6.82;2.05;;;;;;;20.28;60.14;99025.28;5133274;27;20039;-73
2022/06/16 00:20:26;;;;;;;4.78;2.35;;;;;;;20.22;60.58;99021.44;5133324;27;20768;-73
2022/06/16 00:23:11;;;;;;;4.95;2.55;;;;;;;20.22;60.64;99020.63;5135579;27;20046;-73
2022/06/16 00:25:55;;;;;;;7.13;2.25;;;;;;;20.25;61.23;99015.81;5104805;27;20482;-74
2022/06/16 00:28:40;;;;;;;3.22;1.88;;;;;;;20.35;60.39;99017.50;5100813;27;20044;-74
2022/06/16 00:31:25;;;;;;;3.13;2.28;;;;;;;20.13;61.18;99019.75;5119696;27;20043;-74
2022/06/16 00:34:10;;;;;;;5.63;2.47;;;;;;;19.74;62.70;99021.06;5118996;27;20039;-74
2022/06/16 00:36:55;;;;;;;3.65;2.30;;;;;;;19.61;63.64;99006.41;5135447;27;20063;-73
2022/06/16 00:39:41;;;;;;;5.10;2.00;;;;;;;19.45;64.62;99005.31;5115033;27;20055;-73
2022/06/16 00:42:26;;;;;;;4.60;2.30;;;;;;;19.59;64.10;99011.03;5125829;27;20047;-74
2022/06/16 00:45:44;;;;;;;3.53;2.33;;;;;;;19.65;64.09;99007.75;5118414;27;20474;-73
2022/06/16 00:48:43;;;;;;;3.97;2.80;;;;;;;19.54;64.47;99008.00;5104783;27;20042;-73
2022/06/16 00:51:51;;;;;;;2.55;1.98;;;;;;;19.61;64.50;99005.56;5134396;27;20043;-72
2022/06/16 00:54:46;;;;;;;6.10;2.47;;;;;;;19.62;64.80;99004.59;5122182;27;20462;-73
2022/06/16 00:57:49;;;;;;;3.97;2.08;;;;;;;19.93;64.01;99001.38;5119434;27;20038;-73
2022/06/16 01:06:31;;;;;;;3.47;2.30;;;;;;;19.78;64.23;98999.31;5120887;27;20078;-71
2022/06/16 01:09:20;;;;;;;3.35;2.17;;;;;;;19.68;64.39;98994.13;5118385;27;20035;-74
2022/06/16 01:15:50;;;;;;;4.15;2.78;;;;;;;19.69;63.67;98987.00;5130420;27;20027;-72
2022/06/16 01:19:20;;;;;;;4.70;2.38;;;;;;;19.36;64.73;98992.13;5130994;27;20039;-73
2022/06/16 01:22:33;;;;;;;5.45;2.55;;;;;;;19.31;64.61;98987.28;5103540;27;20052;-72
2022/06/16 01:25:30;;;;;;;6.38;2.40;;;;;;;19.29;64.16;98981.31;5117978;27;20059;-72
2022/06/16 01:28:44;;;;;;;4.78;2.58;;;;;;;19.32;64.18;98981.00;5110114;27;20039;-73
2022/06/16 01:31:39;;;;;;;4.18;2.47;;;;;;;19.35;64.57;98986.00;5091697;27;20043;-72
2022/06/16 01:34:52;;;;;;;3.75;2.45;;;;;;;19.12;65.07;98983.88;5117666;27;20037;-73
2022/06/16 01:38:33;;;;;;;6.25;2.85;;;;;;;18.87;66.13;98977.53;5117919;27;20076;-72
2022/06/16 01:41:25;;;;;;;6.82;2.58;;;;;;;18.96;65.61;98985.38;5033467;28;20064;-72
2022/06/16 01:44:23;;;;;;;5.18;2.70;;;;;;;18.82;65.94;98972.66;5036776;28;20088;-72
2022/06/16 01:47:13;;;;;;;4.25;2.90;;;;;;;18.67;65.99;98983.00;5115925;27;20058;-72
2022/06/16 01:50:09;;;;;;;3.33;2.38;;;;;;;18.63;66.28;98978.97;5103970;27;20493;-73
2022/06/16 01:53:00;;;;;;;5.43;2.70;;;;;;;18.69;66.32;98981.00;5121563;27;20039;-73
2022/06/16 01:55:56;;;;;;;4.10;2.33;;;;;;;18.78;65.82;98971.31;5117433;27;20051;-73
2022/06/16 01:58:46;;;;;;;4.40;2.63;;;;;;;18.92;64.71;98980.53;5102226;27;20070;-72
2022/06/16 02:01:39;;;;;;;4.82;2.65;;;;;;;18.75;65.87;98961.84;5118009;27;20039;-73
2022/06/16 02:04:36;;;;;;;3.85;2.65;;;;;;;18.59;66.58;98976.63;5132604;27;20532;-72
2022/06/16 02:07:29;;;;;;;4.78;2.67;;;;;;;18.88;65.07;98965.91;5089921;27;20474;-72
2022/06/16 02:10:21;;;;;;;4.82;2.45;;;;;;;19.13;65.08;98968.78;5101122;27;20096;-73
2022/06/16 02:13:10;;;;;;;6.38;2.70;;;;;;;18.99;64.33;98973.63;5090937;27;20095;-73
2022/06/16 02:16:21;;;;;;;4.00;2.20;;;;;;;18.93;64.59;98969.75;5102723;27;20203;-73
2022/06/16 02:19:11;;;;;;;4.93;2.30;;;;;;;19.15;64.00;98969.44;5116473;27;20473;-72
2022/06/16 02:21:56;;;;;;;3.72;2.05;;;;;;;19.24;64.08;98975.66;5106840;28;20543;-72
2022/06/16 02:24:41;;;;;;;5.45;2.30;;;;;;;18.98;63.29;98965.81;5117655;27;20042;-74
2022/06/16 02:27:25;;;;;;;4.72;2.97;;;;;;;18.94;63.39;98963.47;5134387;27;20043;-74
2022/06/16 02:30:12;;;;;;;8.85;2.40;;;;;;;18.95;63.87;98972.25;5098017;28;20050;-74
2022/06/16 02:33:11;;;;;;;3.60;2.33;;;;;;;19.16;62.90;98973.78;5114005;27;20118;-74
2022/06/16 02:36:11;;;;;;;7.03;2.88;;;;;;;19.05;63.83;98972.16;5117740;27;20108;-73
2022/06/16 02:39:19;;;;;;;5.60;2.85;;;;;;;18.61;64.52;98962.38;5125970;27;20039;-72
2022/06/16 02:42:20;;;;;;;7.28;2.85;;;;;;;18.71;64.83;98973.75;5105715;27;20069;-73
2022/06/16 02:45:10;;;;;;;4.35;2.80;;;;;;;18.44;65.66;98967.56;5131440;27;20428;-73
2022/06/16 02:48:12;;;;;;;4.60;2.53;;;;;;;18.57;65.77;98975.13;5102113;27;20115;-74
2022/06/16 02:51:16;;;;;;;6.20;3.10;;;;;;;18.62;64.98;98972.00;5116649;27;20070;-74
2022/06/16 02:54:13;;;;;;;5.63;2.78;;;;;;;18.39;65.84;98967.16;5101751;27;20063;-74
2022/06/16 02:57:15;;;;;;;3.08;2.65;;;;;;;18.42;66.30;98969.50;5116454;27;20461;-74
2022/06/16 03:00:07;;;;;;;6.47;3.03;;;;;;;18.45;66.05;98967.41;5117223;27;20039;-72
2022/06/16 03:02:53;;;;;;;5.45;2.88;;;;;;;18.61;65.70;98967.66;5102733;27;20389;-73
2022/06/16 03:05:38;;;;;;;3.58;2.45;;;;;;;18.69;65.81;98975.72;5102242;27;20039;-73
2022/06/16 03:08:26;;;;;;;5.95;2.97;;;;;;;18.58;65.89;98972.31;5116032;27;20074;-73
2022/06/16 03:11:17;;;;;;;5.07;2.60;;;;;;;18.59;65.56;98979.28;5113367;28;20042;-75
2022/06/16 03:14:03;;;;;;;5.53;3.15;;;;;;;18.47;66.33;98970.72;5116852;28;20081;-75
2022/06/16 03:16:53;;;;;;;4.03;2.55;;;;;;;18.53;66.10;98971.09;5125207;28;20039;-72
2022/06/16 03:19:38;;;;;;;7.20;2.70;;;;;;;18.44;65.67;98978.97;5131354;28;20031;-74
2022/06/16 03:22:24;;;;;;;4.03;2.50;;;;;;;18.60;65.64;98980.13;5096115;28;20373;-73
2022/06/16 03:25:12;;;;;;;3.88;2.55;;;;;;;18.61;64.73;98975.63;5121414;28;20482;-74
2022/06/16 03:27:58;;;;;;;3.80;2.40;;;;;;;18.44;66.65;98971.00;5097273;28;20040;-75
2022/06/16 03:30:45;;;;;;;5.00;2.40;;;;;;;18.54;66.31;98968.28;5110819;28;20095;-73
2022/06/16 03:33:33;;;;;;;6.53;2.78;;;;;;;18.43;65.32;98973.81;5111609;28;20101;-74
2022/06/16 03:36:19;;;;;;;3.58;2.60;;;;;;;18.22;65.41;98970.50;5117467;28;20071;-73
2022/06/16 03:39:06;;;;;;;5.60;2.97;;;;;;;18.07;65.67;98974.59;5108186;28;20038;-73
2022/06/16 03:41:51;;;;;;;3.08;2.60;;;;;;;18.15;65.91;98977.34;5096208;28;20031;-73
2022/06/16 03:44:36;;;;;;;5.43;2.85;;;;;;;18.44;64.91;98975.50;5098127;28;20055;-74
2022/06/16 03:47:22;;;;;;;3.75;2.72;;;;;;;18.37;65.81;98969.97;5101981;28;20039;-74
2022/06/16 03:50:14;;;;;;;5.82;3.10;;;;;;;18.32;65.43;98973.06;5101931;28;20482;-75
2022/06/16 03:52:59;;;;;;;5.45;3.10;;;;;;;18.09;65.96;98972.63;5121140;28;20042;-74
2022/06/16 03:55:46;;;;;;;5.97;3.00;;;;;;;17.94;66.45;98974.94;5087738;28;20047;-73
2022/06/16 03:58:30;;;;;;;5.97;2.85;;;;;;;18.01;66.21;98975.19;5116332;28;20035;-75
2022/06/16 04:01:15;;;;;;;4.65;3.17;;;;;;;18.22;66.10;98977.59;5116359;28;20053;-75
2022/06/16 04:04:02;;;;;;;5.00;3.33;;;;;;;18.05;66.36;98972.09;5116659;28;20047;-74
2022/06/16 04:07:00;;;;;;;4.65;2.83;;;;;;;17.89;67.11;98970.09;5114800;28;20058;-74
2022/06/16 04:09:46;;;;;;;5.72;3.00;;;;;;;17.84;68.62;98970.53;5116469;28;20114;-75
2022/06/16 04:12:31;;;;;;;5.03;3.00;;;;;;;17.71;67.24;98970.88;5094804;28;20436;-74
2022/06/16 04:15:21;;;;;;;5.10;2.70;;;;;;;17.71;67.06;98972.69;5117755;28;20039;-73
2022/06/16 04:18:08;;;;;;;3.70;2.50;;;;;;;17.88;67.45;98972.88;5108446;28;20050;-74
2022/06/16 04:20:55;;;;;;;5.88;2.97;;;;;;;17.52;67.61;98971.81;5113047;27;20039;-70
2022/06/16 04:23:58;;;;;;;5.47;2.70;;;;;;;17.68;67.84;98971.16;5128770;27;20085;-73
2022/06/16 04:26:45;;;;;;;3.40;2.70;;;;;;;17.80;66.86;98971.81;5113352;27;20036;-74
2022/06/16 04:29:31;;;;;;;5.15;3.10;;;;;;;18.10;65.91;98972.47;5119424;27;20437;-73
2022/06/16 04:32:16;;;;;;;8.50;3.17;;;;;;;17.84;67.09;98975.84;5101957;27;20407;-74
2022/06/16 04:35:05;;;;;;;6.40;3.30;;;;;;;17.88;66.58;98981.69;5103195;27;20034;-73
2022/06/16 04:38:02;;;;;;;6.68;3.13;;;;;;;17.86;66.22;98975.69;5100443;28;20446;-71
2022/06/16 04:40:49;;;;;;;5.07;3.20;;;;;;;18.13;66.45;98971.41;5118576;27;20043;-74
2022/06/16 04:43:35;;;;;;;4.78;3.67;;;;;;;17.74;66.04;98967.09;5119500;27;20043;-74
2022/06/16 04:46:22;;;;;;;5.05;3.38;;;;;;;17.63;66.48;98970.78;5113516;27;20039;-74
2022/06/16 04:49:10;;;;;;;6.03;3.28;;;;;;;17.70;66.63;98968.38;5110813;27;20442;-73
2022/06/16 04:52:05;;;;;;;4.97;3.13;;;;;;;17.61;66.95;98959.47;5101839;27;20042;-72
2022/06/16 04:54:51;;;;;;;6.55;3.45;;;;;;;17.89;66.94;98964.78;5116476;27;20046;-75
2022/06/16 04:58:06;;;;;;;6.70;3.40;;;;;;;18.06;67.63;98970.28;5109408;27;20043;-71
2022/06/16 05:00:57;;;;;;;6.32;2.85;;;;;;;18.32;66.37;98981.03;5136111;27;20035;-71
2022/06/16 05:04:02;;;;;;;5.40;3.63;;;;;;;18.67;65.54;98969.75;5131926;27;20070;-70
2022/06/16 05:07:03;;;;;;;5.65;3.30;;;;;;;18.28;67.30;98966.38;5130986;27;20371;-71
2022/06/16 05:10:14;;;;;;;5.95;3.17;;;;;;;18.43;66.49;98972.00;5102645;27;20104;-73
2022/06/16 05:13:18;;;;;;;7.05;3.13;;;;;;;19.31;66.14;98969.53;5114223;27;20092;-59
2022/06/16 05:16:16;;;;;;;7.43;3.10;;;;;;;19.26;63.53;98961.22;5099044;28;20074;-74
2022/06/16 05:19:24;;;;;;;4.57;3.35;;;;;;;18.92;66.73;98961.94;5094396;27;20050;-72
2022/06/16 05:22:43;;;;;;;5.03;3.30;;;;;;;18.69;65.73;98959.78;5127678;27;20043;-72
2022/06/16 05:25:57;;;;;;;7.32;4.13;;;;;;;19.00;64.88;98964.66;5078821;28;20052;-72
2022/06/16 05:28:48;;;;;;;7.78;3.35;;;;;;;19.24;64.49;98965.03;5113911;27;20045;-73
2022/06/16 05:31:42;;;;;;;8.27;4.18;;;;;;;18.86;65.44;98966.06;5118016;27;20092;-74
2022/06/16 05:34:46;;;;;;;8.32;5.13;;;;;;;18.75;65.63;98963.66;5117878;27;20035;-72
2022/06/16 05:37:51;;;;;;;41.08;25.17;;;;;;;19.91;65.26;98966.97;5118391;27;20070;-71
2022/06/16 05:40:59;;;;;;;8.77;5.25;;;;;;;19.87;61.79;98964.81;5124882;27;20043;-71
2022/06/16 05:44:16;;;;;;;9.88;5.95;;;;;;;19.58;64.08;98978.31;5098811;27;20050;-73
2022/06/16 05:47:01;;;;;;;7.00;4.93;;;;;;;19.72;62.37;98973.41;5131079;27;20470;-72
2022/06/16 05:49:51;;;;;;;31.45;21.58;;;;;;;20.08;68.24;98968.88;5115216;27;20031;-72
2022/06/16 05:52:36;;;;;;;19.20;10.98;;;;;;;21.13;64.78;98963.97;5118956;27;20406;-74
2022/06/16 05:55:26;;;;;;;9.93;5.88;;;;;;;20.25;61.77;98965.28;5104312;27;20799;-73
2022/06/16 05:58:12;;;;;;;16.10;9.60;;;;;;;20.14;63.51;98963.75;5117205;27;20081;-71
2022/06/16 06:01:12;;;;;;;19.33;13.52;;;;;;;20.37;66.69;98965.78;5103375;27;20420;-72
2022/06/16 06:03:57;;;;;;;8.88;5.13;;;;;;;20.69;61.07;98968.66;5109932;27;20039;-74
2022/06/16 06:06:43;;;;;;;10.23;7.63;;;;;;;21.22;61.05;98967.44;5126762;27;20134;-73
2022/06/16 06:18:50;;;;;;;5.53;3.80;;;;;;;20.85;59.67;98975.78;5107623;27;20114;-71
2022/06/16 06:24:44;;;;;;;7.28;3.72;;;;;;;21.20;58.82;98983.59;5132312;27;20050;-73
2022/06/16 06:27:42;;;;;;;6.63;3.65;;;;;;;20.92;59.37;98984.78;5112963;27;20046;-73
2022/06/16 06:30:30;;;;;;;4.78;3.15;;;;;;;21.17;58.54;98983.94;5131897;27;20058;-73
2022/06/16 06:33:18;;;;;;;6.97;3.88;;;;;;;20.88;59.24;98986.09;5115371;27;20457;-71
2022/06/16 06:36:03;;;;;;;5.97;3.60;;;;;;;21.07;58.78;98988.63;5117097;27;20423;-72
2022/06/16 06:38:53;;;;;;;7.88;3.42;;;;;;;21.29;58.36;98992.41;5111399;27;20113;-74
2022/06/16 06:41:38;;;;;;;6.80;3.03;;;;;;;21.66;58.36;98988.31;5089251;27;20118;-73
2022/06/16 06:44:25;;;;;;;4.80;3.80;;;;;;;21.09;58.35;98992.78;5110715;27;20390;-71
2022/06/16 06:47:36;;;;;;;6.45;3.13;;;;;;;21.89;57.32;98992.91;5100693;27;20065;-72
2022/06/16 06:50:30;;;;;;;8.52;3.25;;;;;;;22.11;56.65;98987.81;5083212;27;20045;-72
2022/06/16 06:53:16;;;;;;;5.18;3.45;;;;;;;22.40;54.80;98991.63;5133037;27;20039;-73
2022/06/16 06:56:06;;;;;;;9.23;3.60;;;;;;;21.74;56.17;98979.44;5133447;27;20031;-73
2022/06/16 06:58:52;;;;;;;6.65;3.38;;;;;;;22.06;56.79;98979.50;5117624;27;20416;-71
2022/06/16 07:01:40;;;;;;;6.03;3.90;;;;;;;22.14;55.75;98981.28;5133218;27;20047;-69
2022/06/16 07:04:26;;;;;;;4.90;3.33;;;;;;;22.28;55.34;98974.34;5135229;27;20123;-72
2022/06/16 07:07:16;;;;;;;8.18;3.63;;;;;;;22.58;54.89;98968.31;5097141;28;20051;-70
2022/06/16 07:10:02;;;;;;;9.65;3.72;;;;;;;22.18;55.90;98961.25;5102173;27;20049;-72
2022/06/16 07:12:48;;;;;;;8.43;4.07;;;;;;;22.59;54.83;98962.81;5117330;27;20463;-71
2022/06/16 07:15:34;;;;;;;8.32;4.35;;;;;;;22.91;54.37;98975.25;5105478;28;20043;-71
2022/06/16 07:18:19;;;;;;;6.82;3.72;;;;;;;22.72;55.41;98972.09;5117033;28;20378;-68
2022/06/16 07:21:05;;;;;;;5.25;4.07;;;;;;;23.11;53.48;98976.38;5116329;28;20117;-69
2022/06/16 07:23:51;;;;;;;6.93;4.55;;;;;;;23.74;52.47;98966.38;5116842;28;20450;-68
2022/06/16 07:26:37;;;;;;;7.18;4.45;;;;;;;23.31;53.11;98964.34;5103935;28;20027;-69
2022/06/16 07:29:22;;;;;;;8.23;4.18;;;;;;;22.85;54.73;98966.16;5113381;28;20039;-71
2022/06/16 07:32:07;;;;;;;10.02;4.32;;;;;;;23.16;54.47;98967.81;5091984;28;20063;-70
2022/06/16 07:34:55;;;;;;;7.20;4.45;;;;;;;23.59;52.90;98961.88;5099959;28;20035;-70
2022/06/16 07:37:40;;;;;;;6.05;4.25;;;;;;;23.84;52.61;98942.88;5132356;28;20087;-70
2022/06/16 07:40:25;;;;;;;9.88;4.18;;;;;;;24.22;51.74;98946.38;5106574;28;20035;-71
2022/06/16 07:43:10;;;;;;;10.95;3.70;;;;;;;24.04;51.89;98957.47;5113808;28;20046;-69
2022/06/16 07:46:00;;;;;;;5.57;3.38;;;;;;;24.30;51.55;98958.81;5134050;28;20051;-69
2022/06/16 07:48:44;;;;;;;4.50;3.22;;;;;;;24.06;52.32;98952.75;5126709;28;20055;-69
2022/06/16 07:51:30;;;;;;;5.40;2.83;;;;;;;24.44;51.23;98957.06;5132102;28;20043;-70
2022/06/16 07:54:14;;;;;;;7.22;3.00;;;;;;;24.36;51.32;98956.19;5116793;28;20082;-70
2022/06/16 07:57:01;;;;;;;4.97;2.92;;;;;;;24.51;51.39;98951.78;5134873;27;20039;-69
2022/06/16 07:59:50;;;;;;;3.72;2.67;;;;;;;24.56;51.71;98955.53;5120132;27;20043;-70
2022/06/16 08:02:35;;;;;;;7.13;3.22;;;;;;;24.65;51.56;98960.75;5106180;27;20035;-70
2022/06/16 08:05:20;;;;;;;5.55;2.60;;;;;;;25.15;50.74;98958.06;5135649;27;20539;-70
2022/06/16 08:08:05;;;;;;;4.00;2.40;;;;;;;25.46;50.05;98962.16;5135819;27;20138;-70
2022/06/16 08:10:52;;;;;;;3.78;2.80;;;;;;;25.80;49.58;98958.84;5135639;27;20035;-70
2022/06/16 08:13:39;;;;;;;4.07;2.80;;;;;;;26.38;47.89;98957.56;5121051;27;20073;-71
2022/06/16 08:16:30;;;;;;;4.20;2.80;;;;;;;25.91;49.29;98960.97;5095424;28;20051;-70
2022/06/16 08:19:19;;;;;;;5.10;2.53;;;;;;;26.17;49.12;98971.97;5098961;28;20467;-70
2022/06/16 08:22:04;;;;;;;4.43;2.42;;;;;;;26.64;48.57;98958.63;5128280;27;20140;-69
2022/06/16 08:24:49;;;;;;;5.75;2.90;;;;;;;26.16;48.83;98971.13;5120109;27;20092;-70
2022/06/16 08:27:37;;;;;;;5.90;2.67;;;;;;;26.60;47.41;98961.94;5135060;27;20040;-71
2022/06/16 08:30:24;;;;;;;3.45;2.28;;;;;;;26.73;45.70;98961.94;5108550;28;20493;-71
2022/06/16 08:33:09;;;;;;;3.60;2.03;;;;;;;26.90;45.64;98959.66;5133344;27;20070;-71
2022/06/16 08:35:58;;;;;;;4.90;2.25;;;;;;;27.12;45.08;98964.00;5119383;27;20059;-69
2022/06/16 08:39:03;;;;;;;3.45;2.13;;;;;;;27.02;45.57;98965.25;5131197;27;20039;-70
2022/06/16 08:42:10;;;;;;;3.55;2.20;;;;;;;27.47;44.01;98968.28;5119336;27;20070;-69
2022/06/16 08:45:25;;;;;;;3.85;2.20;;;;;;;27.23;43.60;98955.28;5119967;27;20092;-70
2022/06/16 08:48:25;;;;;;;4.03;1.90;;;;;;;27.28;44.18;98952.81;5116688;27;20122;-70
2022/06/16 08:51:24;;;;;;;4.30;1.75;;;;;;;27.73;42.15;98977.31;5113511;27;20120;-69
2022/06/16 08:54:32;;;;;;;4.70;2.15;;;;;;;27.53;42.96;98965.53;5119276;27;20477;-70
2022/06/16 08:57:26;;;;;;;3.83;1.90;;;;;;;28.24;41.81;98964.81;5088092;28;20039;-68
2022/06/16 09:00:18;;;;;;;6.13;2.30;;;;;;;28.11;41.52;98959.53;5099723;27;20046;-71
2022/06/16 09:03:23;;;;;;;2.85;1.90;;;;;;;27.90;42.28;98948.03;5129096;27;20126;-70
2022/06/16 09:06:14;;;;;;;2.97;1.73;;;;;;;28.04;41.56;98946.94;5114592;27;20047;-68
2022/06/16 09:12:40;;;;;;;3.72;2.00;;;;;;;28.62;40.29;98946.16;5111586;27;20038;-70
2022/06/16 09:15:46;;;;;;;4.03;2.15;;;;;;;28.33;40.42;98957.34;5114947;27;20043;-70
2022/06/16 09:18:40;;;;;;;4.45;2.15;;;;;;;28.15;40.74;98952.69;5126355;27;20042;-70
2022/06/16 09:21:58;;;;;;;2.50;1.77;;;;;;;28.20;40.12;98930.47;5108029;27;20031;-69
2022/06/16 09:25:05;;;;;;;5.25;1.75;;;;;;;28.13;40.62;98925.97;5090746;27;20063;-68
2022/06/16 09:28:03;;;;;;;5.60;2.10;;;;;;;28.10;40.67;98929.09;5132196;27;20031;-69
2022/06/16 09:30:50;;;;;;;3.60;1.90;;;;;;;28.98;40.99;98933.00;5089439;27;20036;-70
2022/06/16 09:33:40;;;;;;;3.83;2.15;;;;;;;28.60;39.98;98935.59;5134555;27;20053;-70
2022/06/16 09:36:31;;;;;;;3.40;1.90;;;;;;;28.43;39.86;98929.94;5129128;27;20035;-69
2022/06/16 09:39:22;;;;;;;2.08;1.75;;;;;;;29.12;39.26;98931.00;5098588;27;20625;-69
2022/06/16 09:42:35;;;;;;;3.05;1.60;;;;;;;29.09;39.43;98921.50;5118495;27;20063;-71
2022/06/16 09:45:31;;;;;;;3.65;1.90;;;;;;;29.31;39.23;98921.06;5096303;27;20040;-70
2022/06/16 09:48:28;;;;;;;3.45;1.70;;;;;;;30.20;38.38;98923.47;5090215;27;20023;-70
2022/06/16 09:51:39;;;;;;;4.05;2.00;;;;;;;29.71;38.08;98927.03;5087388;28;20082;-70
2022/06/16 09:54:35;;;;;;;3.20;1.83;;;;;;;29.20;38.13;98922.59;5124846;27;20035;-69
2022/06/16 09:57:26;;;;;;;2.78;1.63;;;;;;;30.08;37.37;98936.91;5117997;27;20053;-71
2022/06/16 10:00:23;;;;;;;2.88;1.60;;;;;;;30.66;35.98;98928.34;5134099;27;20043;-69
2022/06/16 10:03:24;;;;;;;3.78;1.65;;;;;;;30.60;35.63;98917.41;5083308;28;20040;-71
2022/06/16 10:06:27;;;;;;;3.92;1.65;;;;;;;29.99;36.83;98917.50;5117171;27;20055;-70
2022/06/16 10:09:40;;;;;;;4.15;2.28;;;;;;;28.78;39.27;98920.53;5100925;27;20470;-72
2022/06/16 10:13:30;;;;;;;4.00;2.30;;;;;;;28.64;39.08;98914.44;5133485;27;20043;-72
2022/06/16 10:16:29;;;;;;;3.63;1.60;;;;;;;28.83;39.47;98904.50;5088176;27;20180;-72
2022/06/16 10:19:45;;;;;;;7.78;1.73;;;;;;;28.52;39.36;98911.63;5151209;27;20470;-71
2022/06/16 10:22:35;;;;;;;2.55;1.45;;;;;;;29.37;37.74;98898.56;5086170;28;20043;-71
2022/06/16 10:25:30;;;;;;;2.95;1.55;;;;;;;29.38;38.48;98900.22;5100539;28;20040;-71
2022/06/16 10:28:28;;;;;;;8.20;1.73;;;;;;;29.99;37.40;98893.22;5100100;28;20040;-72
2022/06/16 10:31:43;;;;;;;3.72;1.63;;;;;;;30.51;36.06;98881.00;5111864;28;20028;-70
2022/06/16 10:34:34;;;;;;;3.72;1.60;;;;;;;29.90;37.14;98879.22;5099626;28;20039;-72
2022/06/16 10:37:30;;;;;;;3.65;1.80;;;;;;;30.21;36.56;98874.63;5129644;28;20394;-70
2022/06/16 10:40:22;;;;;;;3.20;1.77;;;;;;;30.57;36.40;98876.56;5124782;28;20028;-71
2022/06/16 10:43:13;;;;;;;3.45;1.70;;;;;;;29.95;37.12;98865.84;5128912;28;20042;-70
2022/06/16 10:46:14;;;;;;;7.43;1.60;;;;;;;29.43;38.08;98875.25;5129410;28;20043;-71
2022/06/16 10:49:04;;;;;;;5.53;2.03;;;;;;;29.51;38.00;98874.94;5104083;28;20046;-72
2022/06/16 10:51:55;;;;;;;3.58;1.80;;;;;;;30.47;36.53;98877.13;5128308;28;20478;-70
2022/06/16 10:54:56;;;;;;;3.38;1.90;;;;;;;30.07;35.83;98879.38;5113747;28;20043;-73
2022/06/16 10:58:03;;;;;;;2.60;1.60;;;;;;;30.84;35.65;98878.78;5099964;28;20039;-72
2022/06/16 11:01:16;;;;;;;3.00;1.70;;;;;;;30.87;36.00;98886.44;5099725;28;20031;-71
2022/06/16 11:04:12;;;;;;;3.92;1.90;;;;;;;30.97;35.58;98888.53;5119533;28;20132;-70
2022/06/16 11:06:59;;;;;;;4.47;2.08;;;;;;;31.34;35.07;98882.81;5129810;28;20442;-72
2022/06/16 11:09:50;;;;;;;7.35;1.77;;;;;;;31.53;34.85;98890.78;5114602;28;20126;-71
2022/06/16 11:12:38;;;;;;;4.13;1.73;;;;;;;31.50;34.01;98903.97;5098351;28;20039;-72
2022/06/16 11:15:29;;;;;;;3.97;1.75;;;;;;;31.08;35.46;98901.22;5128435;28;20054;-71
2022/06/16 11:18:19;;;;;;;6.20;1.85;;;;;;;30.67;35.56;98890.28;5118127;28;20138;-70
2022/06/16 11:21:22;;;;;;;4.65;1.70;;;;;;;30.99;34.97;98894.53;5128654;28;20036;-73
2022/06/16 11:24:23;;;;;;;3.80;1.77;;;;;;;31.03;34.46;98905.66;5128945;28;20031;-72
2022/06/16 11:27:16;;;;;;;2.20;1.30;;;;;;;31.36;34.74;98896.09;5107931;28;20036;-72
2022/06/16 11:30:36;;;;;;;2.40;1.50;;;;;;;31.89;33.86;98889.81;5099309;28;20039;-72
2022/06/16 11:36:49;;;;;;;2.63;1.45;;;;;;;31.61;34.29;98894.16;5097231;28;20044;-72
2022/06/16 11:39:37;;;;;;;2.88;1.88;;;;;;;31.51;34.81;98886.66;5085308;28;20043;-72
2022/06/16 11:42:50;;;;;;;2.50;1.50;;;;;;;32.43;32.39;98873.09;5100322;28;20046;-72
2022/06/16 11:46:08;;;;;;;2.75;1.70;;;;;;;31.83;34.19;98875.34;5103492;28;20298;-71
2022/06/16 11:49:35;;;;;;;4.03;1.50;;;;;;;31.94;33.96;98860.13;5064038;28;20058;-71
2022/06/16 11:53:17;;;;;;;2.38;1.60;;;;;;;31.99;34.24;98854.00;5087654;28;20039;-71
2022/06/16 11:56:43;;;;;;;3.45;1.35;;;;;;;31.55;34.57;98850.75;5101472;28;20050;-71
2022/06/16 12:00:14;;;;;;;3.40;1.52;;;;;;;30.45;35.88;98844.13;5114335;28;20036;-72
2022/06/16 12:03:28;;;;;;;4.00;1.58;;;;;;;31.09;35.14;98840.66;5100241;28;20059;-71
2022/06/16 12:06:35;;;;;;;2.80;1.40;;;;;;;31.51;34.50;98852.31;5114689;28;20035;-69
2022/06/16 12:09:31;;;;;;;2.28;1.20;;;;;;;31.26;35.72;98849.88;5082411;28;20040;-71
2022/06/16 12:12:44;;;;;;;5.25;1.40;;;;;;;31.79;34.29;98837.13;5099455;28;20036;-71
2022/06/16 12:15:37;;;;;;;5.82;1.90;;;;;;;32.11;33.38;98815.97;5113510;28;20397;-71
2022/06/16 12:18:44;;;;;;;3.22;1.60;;;;;;;31.67;33.33;98829.06;5112779;28;20047;-72
2022/06/16 12:22:17;;;;;;;;;;;;;;;;;;;;;
2022/06/16 12:25:30;;;;;;;2.33;1.48;;;;;;;32.32;30.50;98826.06;5095323;28;20047;-72
2022/06/16 12:28:43;;;;;;;5.03;1.58;;;;;;;32.08;31.82;98831.69;5073536;28;20035;-72
2022/06/16 12:32:03;;;;;;;3.83;1.48;;;;;;;31.27;32.54;98838.03;5094534;28;20127;-71
2022/06/16 12:35:13;;;;;;;4.78;2.08;;;;;;;31.38;32.58;98826.38;5114004;28;20078;-71
2022/06/16 12:38:08;;;;;;;2.50;1.40;;;;;;;32.43;31.03;98813.47;5109331;28;20490;-71
2022/06/16 12:41:02;;;;;;;5.45;1.52;;;;;;;32.19;31.81;98815.56;5112972;28;20037;-71
2022/06/16 12:44:19;;;;;;;4.03;1.88;;;;;;;31.63;33.29;98819.75;5113243;28;20048;-71
2022/06/16 12:47:13;;;;;;;4.68;1.70;;;;;;;32.54;32.30;98819.91;5111714;28;20043;-71
2022/06/16 12:50:07;;;;;;;2.95;1.60;;;;;;;31.97;32.85;98827.16;5114367;28;20044;-73
2022/06/16 12:53:05;;;;;;;2.95;1.88;;;;;;;31.56;33.05;98819.94;5108843;28;20469;-71
2022/06/16 12:56:03;;;;;;;4.72;1.30;;;;;;;31.71;30.92;98827.50;5099614;28;20061;-72
2022/06/16 12:58:58;;;;;;;3.50;1.60;;;;;;;31.87;32.63;98810.69;5112839;28;20046;-72
2022/06/16 13:01:47;;;;;;;3.53;1.75;;;;;;;32.68;31.42;98808.69;5098329;28;20069;-71
2022/06/16 13:04:42;;;;;;;2.88;1.73;;;;;;;31.82;32.65;98819.56;5104091;28;20039;-71
2022/06/16 13:07:31;;;;;;;3.22;1.48;;;;;;;32.04;31.83;98794.50;5102817;28;20047;-72
2022/06/16 13:10:24;;;;;;;2.60;1.60;;;;;;;31.22;34.33;98809.00;5075768;28;20032;-72
2022/06/16 13:13:10;;;;;;;5.78;1.70;;;;;;;31.76;33.04;98796.19;5107565;28;20032;-72
2022/06/16 13:16:00;;;;;;;3.38;1.45;;;;;;;31.14;34.77;98793.16;5110047;28;20062;-72
2022/06/16 13:18:55;;;;;;;2.92;1.67;;;;;;;30.65;35.14;98791.59;5093639;28;20050;-72
2022/06/16 13:21:56;;;;;;;1.90;1.38;;;;;;;30.81;33.83;98774.69;5100698;28;20036;-71
2022/06/16 13:25:34;;;;;;;3.03;1.52;;;;;;;31.80;34.15;98762.97;5111327;28;20431;-69
2022/06/16 13:28:39;;;;;;;3.28;1.60;;;;;;;32.09;33.49;98767.47;5056863;28;20047;-70
2022/06/16 13:31:46;;;;;;;3.40;1.50;;;;;;;32.06;33.41;98768.81;5082637;28;20387;-71
2022/06/16 13:34:55;;;;;;;2.67;1.65;;;;;;;31.81;33.79;98769.19;5050707;28;20059;-73
2022/06/16 13:38:04;;;;;;;2.65;1.75;;;;;;;31.41;35.27;98771.78;5096745;28;20028;-69
2022/06/16 13:41:28;;;;;;;5.13;1.53;;;;;;;30.19;35.78;98778.69;5112691;28;20039;-74
2022/06/16 13:44:31;;;;;;;3.40;1.63;;;;;;;29.97;37.63;98773.84;5091853;28;20051;-73
2022/06/16 13:47:20;;;;;;;2.80;1.17;;;;;;;30.10;37.37;98764.69;5108229;28;20049;-72
2022/06/16 13:50:22;;;;;;;2.47;1.58;;;;;;;31.03;36.07;98754.25;5080068;28;20038;-71
2022/06/16 13:53:12;;;;;;;4.85;1.67;;;;;;;31.07;35.74;98755.44;5087294;28;20043;-71
2022/06/16 13:56:07;;;;;;;3.35;1.50;;;;;;;29.97;37.03;98763.88;5096465;28;20039;-72
2022/06/16 13:58:52;;;;;;;3.95;1.45;;;;;;;29.75;38.36;98744.72;5112072;28;20488;-70
2022/06/16 14:02:08;;;;;;;4.60;1.75;;;;;;;30.17;38.57;98735.72;5082362;28;20048;-71
2022/06/16 14:05:01;;;;;;;3.15;1.67;;;;;;;29.37;38.45;98734.06;5086063;28;20047;-71
2022/06/16 14:07:46;;;;;;;6.85;1.92;;;;;;;28.98;39.39;98734.38;5096661;28;20150;-73
2022/06/16 14:10:57;;;;;;;4.47;1.73;;;;;;;28.90;40.50;98737.34;5063222;28;20111;-73
2022/06/16 14:14:20;;;;;;;2.90;2.00;;;;;;;28.47;40.72;98728.31;5075273;28;20055;-72
2022/06/16 14:17:32;;;;;;;3.80;1.73;;;;;;;28.21;39.95;98724.81;5111193;28;20042;-68